Time;durP1;ratioP1;P1;durP2;ratioP2;P2;SDS_P1;SDS_P2;PMS_P1;PMS_P2;Temp;Humidity;BMP_temperature;BMP_pressure;BME280_temperature;BME280_humidity;BME280_pressure;Samples;Min_cycle;Max_cycle;Signal;HPM_P1;HPM_P2
2024/04/16 00:01:51;;;;;;;;;;;21.90;52.10;;;;;;1561430;74;762;-69
2024/04/16 00:03:53;;;;;;;;;;;21.90;52.10;;;;;;1547905;75;683;-71
2024/04/16 00:05:55;;;;;;;;;;;21.80;52.00;;;;;;1558859;74;704;-70
2024/04/16 00:07:57;;;;;;;;;;;21.80;52.00;;;;;;1555138;74;725;-67
2024/04/16 00:09:59;;;;;;;;;;;21.90;52.10;;;;;;1550191;74;1528;-66
2024/04/16 00:12:01;;;;;;;;;;;21.80;52.00;;;;;;1552488;74;754;-68
2024/04/16 00:14:08;;;;;;;;;;;21.80;52.00;;;;;;1556490;74;743;-70
2024/04/16 00:16:07;;;;;;;;;;;21.80;52.10;;;;;;1558101;74;1924;-70
2024/04/16 00:18:08;;;;;;;;;;;21.90;52.10;;;;;;1557608;74;663;-69
2024/04/16 00:20:10;;;;;;;;;;;21.80;52.00;;;;;;1556330;74;1133;-70
2024/04/16 00:22:12;;;;;;;;;;;21.90;52.10;;;;;;1554212;74;657;-71
2024/04/16 00:24:14;;;;;;;;;;;21.80;52.00;;;;;;1560550;74;1587;-68
2024/04/16 00:26:16;;;;;;;;;;;21.80;52.00;;;;;;1559622;74;675;-70
2024/04/16 00:28:18;;;;;;;;;;;21.80;52.00;;;;;;1556142;74;761;-67
2024/04/16 00:30:20;;;;;;;;;;;21.80;52.00;;;;;;1551107;74;1181;-70
2024/04/16 00:32:22;;;;;;;;;;;21.90;52.10;;;;;;1552728;74;741;-70
2024/04/16 00:34:24;;;;;;;;;;;21.90;52.10;;;;;;1556352;74;784;-68
2024/04/16 00:36:25;;;;;;;;;;;21.80;52.00;;;;;;1560099;74;1907;-70
2024/04/16 00:38:27;;;;;;;;;;;21.80;52.00;;;;;;1556469;74;1512;-71
2024/04/16 00:40:29;;;;;;;;;;;21.80;52.00;;;;;;1557765;74;1150;-68
2024/04/16 00:42:31;;;;;;;;;;;21.90;52.10;;;;;;1557490;74;661;-68
2024/04/16 00:44:35;;;;;;;;;;;21.80;52.00;;;;;;1554803;74;741;-67
2024/04/16 00:46:37;;;;;;;;;;;21.90;52.20;;;;;;1556596;74;1568;-68
2024/04/16 00:48:38;;;;;;;;;;;21.80;52.10;;;;;;1550708;74;1151;-67
2024/04/16 00:50:40;;;;;;;;;;;21.90;52.20;;;;;;1551277;74;663;-72
2024/04/16 00:52:42;;;;;;;;;;;21.80;52.10;;;;;;1547919;74;1562;-73
2024/04/16 00:54:44;;;;;;;;;;;21.80;52.10;;;;;;1558525;74;826;-66
2024/04/16 00:56:46;;;;;;;;;;;21.90;52.30;;;;;;1546806;74;1914;-68
2024/04/16 00:58:48;;;;;;;;;;;21.90;52.30;;;;;;1554696;74;1134;-68
2024/04/16 01:00:50;;;;;;;;;;;21.80;52.20;;;;;;1550540;74;670;-69
2024/04/16 01:02:52;;;;;;;;;;;21.80;52.30;;;;;;1549403;74;941;-69
2024/04/16 01:04:54;;;;;;;;;;;21.80;52.30;;;;;;1552362;74;676;-69
2024/04/16 01:06:56;;;;;;;;;;;21.80;52.30;;;;;;1553778;74;1598;-67
2024/04/16 01:08:58;;;;;;;;;;;21.90;52.50;;;;;;1556787;74;1194;-67
2024/04/16 01:11:00;;;;;;;;;;;21.80;52.30;;;;;;1505566;76;739;-67
2024/04/16 01:13:02;;;;;;;;;;;21.80;52.30;;;;;;1523810;76;692;-68
2024/04/16 01:15:04;;;;;;;;;;;21.90;52.40;;;;;;1502667;78;685;-70
2024/04/16 01:17:07;;;;;;;;;;;21.80;52.30;;;;;;1508865;78;1957;-69
2024/04/16 01:19:09;;;;;;;;;;;21.80;52.30;;;;;;1501229;78;1505;-68
2024/04/16 01:21:11;;;;;;;;;;;21.80;52.30;;;;;;1508722;78;795;-67
2024/04/16 01:23:13;;;;;;;;;;;21.80;52.40;;;;;;1508074;78;611;-68
2024/04/16 01:25:15;;;;;;;;;;;21.90;52.50;;;;;;1504230;78;764;-70
2024/04/16 01:27:17;;;;;;;;;;;21.90;52.60;;;;;;1501462;78;723;-69
2024/04/16 01:29:19;;;;;;;;;;;21.80;52.40;;;;;;1504957;78;1292;-72
2024/04/16 01:31:22;;;;;;;;;;;21.80;52.40;;;;;;1505915;78;654;-69
2024/04/16 01:33:23;;;;;;;;;;;21.80;52.40;;;;;;1496609;77;1569;-71
2024/04/16 01:35:25;;;;;;;;;;;21.90;52.60;;;;;;1509752;77;1929;-70
2024/04/16 01:37:27;;;;;;;;;;;21.80;52.40;;;;;;1505475;78;682;-72
2024/04/16 01:39:29;;;;;;;;;;;21.80;52.50;;;;;;1501525;77;1158;-73
2024/04/16 01:41:31;;;;;;;;;;;21.80;52.40;;;;;;1495582;78;724;-68
2024/04/16 01:43:33;;;;;;;;;;;21.90;52.50;;;;;;1511182;78;738;-68
2024/04/16 01:45:35;;;;;;;;;;;21.90;52.50;;;;;;1512305;77;697;-67
2024/04/16 01:47:37;;;;;;;;;;;21.90;52.60;;;;;;1498414;78;1583;-68
2024/04/16 01:49:38;;;;;;;;;;;21.90;52.60;;;;;;1497904;78;1127;-69
2024/04/16 01:51:40;;;;;;;;;;;21.90;52.60;;;;;;1504175;78;800;-73
2024/04/16 01:53:42;;;;;;;;;;;21.90;52.60;;;;;;1498811;78;808;-67
2024/04/16 01:55:44;;;;;;;;;;;21.90;52.60;;;;;;1504484;77;1944;-67
2024/04/16 01:57:46;;;;;;;;;;;21.90;52.60;;;;;;1497847;77;700;-68
2024/04/16 01:59:48;;;;;;;;;;;21.70;52.50;;;;;;1511109;77;1134;-70
2024/04/16 02:01:50;;;;;;;;;;;21.80;52.50;;;;;;1505158;78;1341;-67
2024/04/16 02:03:52;;;;;;;;;;;21.90;52.60;;;;;;1506725;77;754;-69
2024/04/16 02:05:57;;;;;;;;;;;21.90;52.70;;;;;;1500408;77;717;-70
2024/04/16 02:07:57;;;;;;;;;;;21.80;52.50;;;;;;1503359;77;1660;-69
2024/04/16 02:09:59;;;;;;;;;;;21.90;52.70;;;;;;1498930;77;1095;-68
2024/04/16 02:12:01;;;;;;;;;;;21.80;52.50;;;;;;1502399;78;745;-67
2024/04/16 02:14:03;;;;;;;;;;;21.90;52.70;;;;;;1499224;77;726;-66
2024/04/16 02:16:05;;;;;;;;;;;21.90;52.70;;;;;;1505843;77;1950;-68
2024/04/16 02:18:07;;;;;;;;;;;21.90;52.70;;;;;;1502315;77;725;-68
2024/04/16 02:20:09;;;;;;;;;;;21.80;52.60;;;;;;1509134;77;1139;-67
2024/04/16 02:22:11;;;;;;;;;;;21.80;52.60;;;;;;1504209;78;760;-69
2024/04/16 02:24:13;;;;;;;;;;;21.80;52.60;;;;;;1507647;77;727;-69
2024/04/16 02:26:15;;;;;;;;;;;21.80;52.60;;;;;;1500903;77;717;-73
2024/04/16 02:28:17;;;;;;;;;;;21.90;52.60;;;;;;1505879;77;694;-71
2024/04/16 02:30:19;;;;;;;;;;;21.80;52.60;;;;;;1503405;78;1554;-71
2024/04/16 02:32:21;;;;;;;;;;;21.80;52.60;;;;;;1496301;78;717;-68
2024/04/16 02:34:23;;;;;;;;;;;21.90;52.70;;;;;;1497420;78;724;-67
2024/04/16 02:36:25;;;;;;;;;;;21.80;52.60;;;;;;1501749;77;1939;-69
2024/04/16 02:38:28;;;;;;;;;;;21.80;52.60;;;;;;1495498;78;646;-68
2024/04/16 02:40:30;;;;;;;;;;;21.80;52.60;;;;;;1507293;77;1145;-72
2024/04/16 02:42:32;;;;;;;;;;;21.90;52.80;;;;;;1505243;77;694;-70
2024/04/16 02:44:34;;;;;;;;;;;21.80;52.60;;;;;;1499401;78;1214;-69
2024/04/16 02:46:36;;;;;;;;;;;21.80;52.70;;;;;;1506833;77;673;-70
2024/04/16 02:48:38;;;;;;;;;;;21.80;52.60;;;;;;1506429;78;740;-68
2024/04/16 02:50:40;;;;;;;;;;;21.80;52.60;;;;;;1503533;78;676;-68
2024/04/16 02:52:42;;;;;;;;;;;21.80;52.60;;;;;;1505000;78;660;-67
2024/04/16 02:54:44;;;;;;;;;;;21.80;52.50;;;;;;1505968;78;633;-68
2024/04/16 02:56:46;;;;;;;;;;;21.80;52.60;;;;;;1506086;77;1932;-70
2024/04/16 02:58:48;;;;;;;;;;;21.80;52.60;;;;;;1508986;77;1504;-68
2024/04/16 03:00:50;;;;;;;;;;;21.80;52.60;;;;;;1507117;78;612;-72
2024/04/16 03:02:51;;;;;;;;;;;21.80;52.70;;;;;;1505149;77;758;-68
2024/04/16 03:04:53;;;;;;;;;;;21.80;52.70;;;;;;1501808;78;697;-70
2024/04/16 03:06:55;;;;;;;;;;;21.80;52.60;;;;;;1505807;78;747;-72
2024/04/16 03:08:57;;;;;;;;;;;21.80;52.60;;;;;;1501688;78;1148;-68
2024/04/16 03:10:59;;;;;;;;;;;21.80;52.70;;;;;;1498579;77;686;-63
2024/04/16 03:13:01;;;;;;;;;;;21.80;52.70;;;;;;1503458;78;1526;-69
2024/04/16 03:15:03;;;;;;;;;;;21.80;52.70;;;;;;1502549;78;643;-72
2024/04/16 03:17:05;;;;;;;;;;;21.80;52.60;;;;;;1509829;78;1916;-71
2024/04/16 03:19:08;;;;;;;;;;;21.80;52.60;;;;;;1506835;77;1142;-73
2024/04/16 03:21:09;;;;;;;;;;;21.80;52.60;;;;;;1506267;78;661;-67
2024/04/16 03:23:11;;;;;;;;;;;21.80;52.60;;;;;;1508208;77;733;-68
2024/04/16 03:25:13;;;;;;;;;;;21.80;52.60;;;;;;1508484;77;708;-68
2024/04/16 03:27:15;;;;;;;;;;;21.80;52.60;;;;;;1506793;78;1297;-70
2024/04/16 03:29:17;;;;;;;;;;;21.50;52.60;;;;;;1504339;77;1077;-73
2024/04/16 03:31:19;;;;;;;;;;;21.70;52.70;;;;;;1509074;78;716;-72
2024/04/16 03:33:21;;;;;;;;;;;21.80;52.60;;;;;;1504122;78;615;-69
2024/04/16 03:35:23;;;;;;;;;;;21.80;52.80;;;;;;1498538;78;732;-69
2024/04/16 03:37:25;;;;;;;;;;;21.80;52.80;;;;;;1503971;78;1941;-70
2024/04/16 03:39:27;;;;;;;;;;;21.70;52.80;;;;;;1507099;77;1174;-71
2024/04/16 03:41:29;;;;;;;;;;;21.80;52.70;;;;;;1507960;77;1497;-70
2024/04/16 03:43:31;;;;;;;;;;;21.80;52.80;;;;;;1500533;78;679;-69
2024/04/16 03:45:33;;;;;;;;;;;21.80;52.80;;;;;;1503077;78;677;-75
2024/04/16 03:47:35;;;;;;;;;;;21.80;52.80;;;;;;1500135;77;711;-69
2024/04/16 03:49:37;;;;;;;;;;;21.80;52.80;;;;;;1496641;77;1149;-67
2024/04/16 03:51:39;;;;;;;;;;;21.80;52.80;;;;;;1504821;78;564;-71
2024/04/16 03:53:41;;;;;;;;;;;21.70;52.80;;;;;;1492779;77;687;-74
2024/04/16 03:55:43;;;;;;;;;;;21.80;52.80;;;;;;1490512;77;1611;-69
2024/04/16 03:57:45;;;;;;;;;;;21.80;52.80;;;;;;1496070;78;1942;-72
2024/04/16 04:02:07;;;;;;;;;;;21.70;52.80;;;;;;1499786;77;647;-70
2024/04/16 04:04:09;;;;;;;;;;;21.80;52.70;;;;;;1499725;78;722;-71
2024/04/16 04:06:11;;;;;;;;;;;21.70;52.80;;;;;;1493741;77;740;-70
2024/04/16 04:08:13;;;;;;;;;;;21.70;52.70;;;;;;1498361;77;1550;-69
2024/04/16 04:10:16;;;;;;;;;;;21.80;52.80;;;;;;1507475;77;1148;-68
2024/04/16 04:12:18;;;;;;;;;;;21.80;52.80;;;;;;1501227;77;785;-71
2024/04/16 04:14:20;;;;;;;;;;;21.70;52.80;;;;;;1507477;77;743;-71
2024/04/16 04:16:22;;;;;;;;;;;21.70;52.70;;;;;;1507104;77;1953;-70
2024/04/16 04:18:24;;;;;;;;;;;21.70;52.60;;;;;;1496173;77;619;-69
2024/04/16 04:20:26;;;;;;;;;;;21.70;52.40;;;;;;1509877;77;1120;-69
2024/04/16 04:22:28;;;;;;;;;;;21.70;52.50;;;;;;1503974;77;1553;-69
2024/04/16 04:24:29;;;;;;;;;;;21.70;52.50;;;;;;1494886;77;677;-72
2024/04/16 04:26:31;;;;;;;;;;;21.70;52.60;;;;;;1503837;77;664;-72
2024/04/16 04:28:33;;;;;;;;;;;21.70;52.60;;;;;;1514356;76;652;-72
2024/04/16 04:30:35;;;;;;;;;;;21.80;52.70;;;;;;1507965;77;1104;-72
2024/04/16 04:32:37;;;;;;;;;;;21.70;52.60;;;;;;1499604;77;691;-75
2024/04/16 04:34:39;;;;;;;;;;;21.70;52.70;;;;;;1502833;78;734;-69
2024/04/16 04:36:41;;;;;;;;;;;21.70;52.70;;;;;;1499977;78;1928;-72
2024/04/16 04:38:43;;;;;;;;;;;21.80;52.80;;;;;;1489728;77;1152;-71
2024/04/16 04:40:45;;;;;;;;;;;21.80;52.80;;;;;;1498824;78;670;-69
2024/04/16 04:42:48;;;;;;;;;;;21.80;52.80;;;;;;1500182;78;748;-69
2024/04/16 04:44:50;;;;;;;;;;;21.80;52.70;;;;;;1502280;78;739;-70
2024/04/16 04:46:52;;;;;;;;;;;21.70;52.80;;;;;;1500160;78;602;-71
2024/04/16 04:48:54;;;;;;;;;;;21.70;52.80;;;;;;1506248;78;1124;-70
2024/04/16 04:50:56;;;;;;;;;;;21.70;52.80;;;;;;1505144;78;1293;-68
2024/04/16 04:52:57;;;;;;;;;;;21.70;52.90;;;;;;1500194;78;774;-68
2024/04/16 04:55:03;;;;;;;;;;;21.80;52.80;;;;;;1498976;77;687;-70
2024/04/16 04:57:03;;;;;;;;;;;21.80;52.80;;;;;;1493274;78;1930;-72
2024/04/16 04:59:05;;;;;;;;;;;21.70;52.80;;;;;;1488709;78;1161;-71
2024/04/16 05:01:07;;;;;;;;;;;21.70;52.70;;;;;;1508778;77;757;-71
2024/04/16 05:03:09;;;;;;;;;;;21.70;52.70;;;;;;1505849;77;667;-67
2024/04/16 05:05:11;;;;;;;;;;;21.70;52.70;;;;;;1508088;77;1523;-69
2024/04/16 05:07:13;;;;;;;;;;;21.70;52.60;;;;;;1506976;77;662;-69
2024/04/16 05:09:15;;;;;;;;;;;21.70;52.60;;;;;;1495996;77;1138;-72
2024/04/16 05:11:16;;;;;;;;;;;21.70;52.40;;;;;;1505085;78;742;-70
2024/04/16 05:13:18;;;;;;;;;;;21.70;52.30;;;;;;1504682;77;714;-73
2024/04/16 05:15:20;;;;;;;;;;;21.70;52.40;;;;;;1496911;78;789;-70
2024/04/16 05:17:22;;;;;;;;;;;21.70;52.40;;;;;;1505987;77;1949;-66
2024/04/16 05:19:24;;;;;;;;;;;21.70;52.50;;;;;;1504719;77;1591;-67
2024/04/16 05:21:26;;;;;;;;;;;21.70;52.40;;;;;;1501424;78;782;-68
2024/04/16 05:23:28;;;;;;;;;;;21.70;52.30;;;;;;1497098;78;659;-69
2024/04/16 05:25:30;;;;;;;;;;;21.70;52.30;;;;;;1529267;76;644;-69
2024/04/16 05:27:32;;;;;;;;;;;21.70;52.30;;;;;;1497236;78;742;-67
2024/04/16 05:29:34;;;;;;;;;;;21.70;52.40;;;;;;1510964;78;1115;-70
2024/04/16 05:31:35;;;;;;;;;;;21.70;52.30;;;;;;1511364;78;602;-67
2024/04/16 05:33:37;;;;;;;;;;;21.70;52.30;;;;;;1503791;78;1550;-70
2024/04/16 05:35:39;;;;;;;;;;;21.70;52.30;;;;;;1505767;78;798;-71
2024/04/16 05:37:41;;;;;;;;;;;21.70;52.30;;;;;;1511764;78;1945;-66
2024/04/16 05:39:43;;;;;;;;;;;21.70;52.20;;;;;;1509665;78;1182;-68
2024/04/16 05:41:45;;;;;;;;;;;21.60;52.10;;;;;;1506817;78;710;-72
2024/04/16 05:43:47;;;;;;;;;;;21.60;52.10;;;;;;1507833;78;750;-67
2024/04/16 05:45:49;;;;;;;;;;;21.70;52.10;;;;;;1495563;78;694;-69
2024/04/16 05:47:51;;;;;;;;;;;21.70;52.20;;;;;;1508017;78;1566;-68
2024/04/16 05:49:53;;;;;;;;;;;21.60;52.00;;;;;;1508604;77;1092;-68
2024/04/16 05:51:57;;;;;;;;;;;21.70;52.10;;;;;;1512498;78;702;-71
2024/04/16 05:54:00;;;;;;;;;;;21.60;52.00;;;;;;1500455;77;1593;-67
2024/04/16 05:56:02;;;;;;;;;;;21.60;52.00;;;;;;1507360;77;757;-66
2024/04/16 05:58:04;;;;;;;;;;;21.60;51.90;;;;;;1500645;77;1938;-67
2024/04/16 06:00:06;;;;;;;;;;;21.60;51.90;;;;;;1501185;77;1140;-68
2024/04/16 06:02:08;;;;;;;;;;;21.60;51.80;;;;;;1499672;78;1287;-68
2024/04/16 06:04:10;;;;;;;;;;;21.60;51.80;;;;;;1504178;78;714;-67
2024/04/16 06:06:12;;;;;;;;;;;21.60;51.80;;;;;;1509939;77;679;-67
2024/04/16 06:08:14;;;;;;;;;;;21.60;51.70;;;;;;1510398;77;680;-73
2024/04/16 06:10:15;;;;;;;;;;;21.60;51.80;;;;;;1494426;78;1131;-69
2024/04/16 06:12:17;;;;;;;;;;;21.60;51.80;;;;;;1499552;77;769;-71
2024/04/16 06:14:19;;;;;;;;;;;21.60;51.70;;;;;;1507344;77;703;-68
2024/04/16 06:16:21;;;;;;;;;;;21.60;51.60;;;;;;1502525;78;1528;-71
2024/04/16 06:18:23;;;;;;;;;;;21.60;51.60;;;;;;1510027;78;1949;-71
2024/04/16 06:20:25;;;;;;;;;;;21.50;51.60;;;;;;1502202;78;1077;-71
2024/04/16 06:22:27;;;;;;;;;;;21.60;51.50;;;;;;1502907;78;578;-72
2024/04/16 06:24:29;;;;;;;;;;;21.60;51.50;;;;;;1512038;78;689;-68
2024/04/16 06:26:31;;;;;;;;;;;21.60;51.50;;;;;;1509610;77;684;-70
2024/04/16 06:28:33;;;;;;;;;;;21.60;51.50;;;;;;1509628;78;669;-72
2024/04/16 06:30:35;;;;;;;;;;;21.60;51.50;;;;;;1502670;78;1650;-72
2024/04/16 06:32:37;;;;;;;;;;;21.50;51.40;;;;;;1503095;78;699;-68
2024/04/16 06:34:39;;;;;;;;;;;21.60;51.40;;;;;;1503516;77;765;-69
2024/04/16 06:36:41;;;;;;;;;;;21.50;51.40;;;;;;1492878;78;805;-74
2024/04/16 06:38:43;;;;;;;;;;;21.60;51.40;;;;;;1508656;77;1929;-67
2024/04/16 06:40:44;;;;;;;;;;;21.60;51.30;;;;;;1510697;77;688;-67
2024/04/16 06:42:46;;;;;;;;;;;21.50;51.30;;;;;;1494787;78;789;-70
2024/04/16 06:44:48;;;;;;;;;;;21.60;51.30;;;;;;1502430;78;1542;-70
2024/04/16 06:46:50;;;;;;;;;;;21.60;51.30;;;;;;1509207;77;736;-73
2024/04/16 06:48:52;;;;;;;;;;;21.50;51.20;;;;;;1504786;77;1151;-68
2024/04/16 06:50:54;;;;;;;;;;;21.60;51.20;;;;;;1510503;78;757;-73
2024/04/16 06:52:56;;;;;;;;;;;21.60;51.20;;;;;;1519423;77;783;-74
2024/04/16 06:54:58;;;;;;;;;;;21.60;51.20;;;;;;1518718;77;756;-66
2024/04/16 06:57:00;;;;;;;;;;;21.60;51.20;;;;;;1518584;78;1580;-67
2024/04/16 06:59:02;;;;;;;;;;;21.60;51.20;;;;;;1519301;77;1942;-72
2024/04/16 07:01:04;;;;;;;;;;;21.60;51.20;;;;;;1517051;77;603;-68
2024/04/16 07:03:06;;;;;;;;;;;21.60;51.20;;;;;;1516740;77;686;-69
2024/04/16 07:05:09;;;;;;;;;;;21.60;51.10;;;;;;1519966;77;807;-69
2024/04/16 07:07:11;;;;;;;;;;;21.50;51.10;;;;;;1519710;77;1686;-73
2024/04/16 07:09:13;;;;;;;;;;;21.60;51.10;;;;;;1513787;77;1148;-68
2024/04/16 07:11:15;;;;;;;;;;;21.50;51.10;;;;;;1519914;77;1498;-69
2024/04/16 07:13:17;;;;;;;;;;;21.50;51.00;;;;;;1512450;77;628;-69
2024/04/16 07:15:19;;;;;;;;;;;21.60;51.00;;;;;;1515889;77;582;-69
2024/04/16 07:17:21;;;;;;;;;;;21.50;51.00;;;;;;1515249;77;1928;-67
2024/04/16 07:19:23;;;;;;;;;;;21.50;51.00;;;;;;1503401;77;1120;-70
2024/04/16 07:21:25;;;;;;;;;;;21.50;51.00;;;;;;1521009;77;676;-69
2024/04/16 07:23:27;;;;;;;;;;;21.60;50.90;;;;;;1518701;77;697;-71
2024/04/16 07:25:29;;;;;;;;;;;21.50;50.90;;;;;;1508695;77;1544;-70
2024/04/16 07:27:30;;;;;;;;;;;21.50;50.90;;;;;;1515523;77;910;-66
2024/04/16 07:29:32;;;;;;;;;;;21.50;50.80;;;;;;1509900;77;1130;-67
2024/04/16 07:31:34;;;;;;;;;;;21.50;50.70;;;;;;1517367;77;745;-73
2024/04/16 07:33:36;;;;;;;;;;;21.50;50.80;;;;;;1503726;77;741;-66
2024/04/16 07:35:38;;;;;;;;;;;21.60;50.70;;;;;;1504600;78;761;-71
2024/04/16 07:37:40;;;;;;;;;;;21.50;50.70;;;;;;1517423;77;1936;-68
2024/04/16 07:39:42;;;;;;;;;;;21.50;50.80;;;;;;1518719;77;1455;-69
2024/04/16 07:41:45;;;;;;;;;;;21.50;50.70;;;;;;1517794;77;682;-71
2024/04/16 07:43:47;;;;;;;;;;;21.50;50.70;;;;;;1512809;77;684;-68
2024/04/16 07:45:49;;;;;;;;;;;21.50;50.80;;;;;;1519741;77;705;-70
2024/04/16 07:47:51;;;;;;;;;;;21.50;50.80;;;;;;1510756;77;686;-70
2024/04/16 07:49:52;;;;;;;;;;;21.50;50.80;;;;;;1508598;77;1138;-71
2024/04/16 07:51:54;;;;;;;;;;;21.50;50.80;;;;;;1509341;78;743;-69
2024/04/16 07:53:56;;;;;;;;;;;21.60;50.80;;;;;;1509315;77;1497;-66
2024/04/16 07:55:58;;;;;;;;;;;21.60;50.80;;;;;;1513970;77;735;-67
2024/04/16 07:58:00;;;;;;;;;;;21.60;50.80;;;;;;1499270;77;1947;-67
2024/04/16 08:00:03;;;;;;;;;;;21.60;50.80;;;;;;1512228;77;1113;-67
2024/04/16 08:02:05;;;;;;;;;;;21.60;50.80;;;;;;1509638;77;701;-67
2024/04/16 08:04:06;;;;;;;;;;;21.60;50.80;;;;;;1514197;77;684;-67
2024/04/16 08:06:10;;;;;;;;;;;21.60;50.80;;;;;;1507165;77;746;-66
2024/04/16 08:08:14;;;;;;;;;;;21.60;50.80;;;;;;1518705;77;1544;-70
2024/04/16 08:10:15;;;;;;;;;;;21.70;50.90;;;;;;1511761;77;1521;-73
2024/04/16 08:12:17;;;;;;;;;;;21.70;50.80;;;;;;1512103;77;746;-72
2024/04/16 08:14:21;;;;;;;;;;;21.70;50.90;;;;;;1512693;77;717;-67
2024/04/16 08:16:23;;;;;;;;;;;21.70;50.80;;;;;;1515965;77;1675;-74
2024/04/16 08:18:24;;;;;;;;;;;21.60;50.70;;;;;;1505536;77;1953;-69
2024/04/16 08:20:26;;;;;;;;;;;21.70;50.80;;;;;;1518825;77;1196;-72
2024/04/16 08:22:28;;;;;;;;;;;21.70;50.80;;;;;;1507145;77;1502;-67
2024/04/16 08:24:30;;;;;;;;;;;21.70;50.80;;;;;;1518994;77;758;-68
2024/04/16 08:26:32;;;;;;;;;;;21.70;50.70;;;;;;1520234;77;707;-68
2024/04/16 08:28:34;;;;;;;;;;;21.70;50.60;;;;;;1522352;77;675;-67
2024/04/16 08:30:36;;;;;;;;;;;21.70;50.70;;;;;;1519035;77;1091;-69
2024/04/16 08:32:38;;;;;;;;;;;21.70;50.60;;;;;;1510429;77;651;-66
2024/04/16 08:34:40;;;;;;;;;;;21.70;50.70;;;;;;1517987;77;695;-68
2024/04/16 08:36:42;;;;;;;;;;;21.70;50.60;;;;;;1519581;78;817;-70
2024/04/16 08:38:43;;;;;;;;;;;21.70;50.60;;;;;;1521233;78;1941;-71
2024/04/16 08:40:45;;;;;;;;;;;21.70;50.60;;;;;;1500394;77;756;-71
2024/04/16 08:42:49;;;;;;;;;;;21.70;50.50;;;;;;1518491;77;727;-68
2024/04/16 08:44:53;;;;;;;;;;;21.70;50.50;;;;;;1518179;77;727;-69
2024/04/16 08:46:54;;;;;;;;;;;21.70;50.40;;;;;;1521147;77;797;-68
2024/04/16 08:48:56;;;;;;;;;;;21.70;50.40;;;;;;1510179;77;1190;-73
2024/04/16 08:50:58;;;;;;;;;;;21.70;50.40;;;;;;1515223;77;714;-67
2024/04/16 08:53:00;;;;;;;;;;;21.70;50.40;;;;;;1507846;77;791;-68
2024/04/16 08:55:02;;;;;;;;;;;21.70;50.40;;;;;;1516420;77;730;-68
2024/04/16 08:57:04;;;;;;;;;;;21.70;50.40;;;;;;1520640;77;692;-67
2024/04/16 08:59:06;;;;;;;;;;;21.80;50.40;;;;;;1516275;77;1984;-74
2024/04/16 09:01:08;;;;;;;;;;;21.80;50.40;;;;;;1513662;78;802;-70
2024/04/16 09:03:10;;;;;;;;;;;21.70;50.40;;;;;;1510193;77;611;-67
2024/04/16 09:05:12;;;;;;;;;;;21.70;50.30;;;;;;1509300;78;817;-69
2024/04/16 09:07:14;;;;;;;;;;;21.70;50.30;;;;;;1515843;77;807;-70
2024/04/16 09:09:15;;;;;;;;;;;21.80;50.30;;;;;;1513912;77;1103;-68
2024/04/16 09:11:17;;;;;;;;;;;21.70;50.30;;;;;;1515362;78;745;-74
2024/04/16 09:13:19;;;;;;;;;;;21.80;50.30;;;;;;1512084;77;734;-68
2024/04/16 09:15:21;;;;;;;;;;;21.80;50.20;;;;;;1519553;78;736;-68
2024/04/16 09:17:23;;;;;;;;;;;21.80;50.20;;;;;;1509629;77;768;-67
2024/04/16 09:19:27;;;;;;;;;;;21.80;50.20;;;;;;1499787;77;1970;-69
2024/04/16 09:21:29;;;;;;;;;;;21.70;50.20;;;;;;1508164;77;592;-72
2024/04/16 09:23:32;;;;;;;;;;;21.80;50.20;;;;;;1511204;77;713;-70
2024/04/16 09:25:36;;;;;;;;;;;21.80;50.10;;;;;;1511618;78;742;-67
2024/04/16 09:27:38;;;;;;;;;;;21.80;50.00;;;;;;1511579;77;2012;-67
2024/04/16 09:29:39;;;;;;;;;;;21.80;50.10;;;;;;1501343;77;1141;-71
2024/04/16 09:31:41;;;;;;;;;;;21.80;50.00;;;;;;1519917;77;1518;-72
2024/04/16 09:33:43;;;;;;;;;;;21.80;50.00;;;;;;1517024;77;783;-72
2024/04/16 09:35:45;;;;;;;;;;;21.80;49.90;;;;;;1512002;78;706;-68
2024/04/16 09:37:47;;;;;;;;;;;21.70;49.90;;;;;;1506721;78;713;-68
2024/04/16 09:39:49;;;;;;;;;;;21.80;49.80;;;;;;1521989;77;1938;-67
2024/04/16 09:41:52;;;;;;;;;;;21.70;49.80;;;;;;1516383;78;731;-71
2024/04/16 09:43:54;;;;;;;;;;;21.80;49.70;;;;;;1521111;77;694;-70
2024/04/16 09:45:56;;;;;;;;;;;21.80;49.70;;;;;;1520850;78;1535;-71
2024/04/16 09:47:58;;;;;;;;;;;21.80;49.70;;;;;;1519174;77;720;-67
2024/04/16 09:50:00;;;;;;;;;;;21.70;49.70;;;;;;1509661;77;1179;-68
2024/04/16 09:52:02;;;;;;;;;;;21.80;49.70;;;;;;1507131;77;689;-67
2024/04/16 09:54:04;;;;;;;;;;;21.70;49.70;;;;;;1513835;77;789;-68
2024/04/16 09:56:06;;;;;;;;;;;21.70;49.60;;;;;;1514427;77;698;-69
2024/04/16 09:58:08;;;;;;;;;;;21.80;49.60;;;;;;1513929;77;824;-66
2024/04/16 10:00:10;;;;;;;;;;;21.80;49.60;;;;;;1502798;78;1946;-68
2024/04/16 10:02:12;;;;;;;;;;;21.80;49.60;;;;;;1516371;76;787;-67
2024/04/16 10:04:14;;;;;;;;;;;21.80;49.60;;;;;;1521508;76;783;-68
2024/04/16 10:06:16;;;;;;;;;;;21.80;49.60;;;;;;1523479;76;749;-68
2024/04/16 10:08:18;;;;;;;;;;;21.70;49.60;;;;;;1505799;77;706;-70
2024/04/16 10:10:20;;;;;;;;;;;21.80;49.50;;;;;;1494052;79;1143;-70
2024/04/16 10:12:21;;;;;;;;;;;21.80;49.60;;;;;;1521134;76;700;-70
2024/04/16 10:14:24;;;;;;;;;;;21.80;49.60;;;;;;1495168;78;1312;-68
2024/04/16 10:16:26;;;;;;;;;;;21.80;49.50;;;;;;1494702;78;742;-67
2024/04/16 10:18:28;;;;;;;;;;;21.70;49.40;;;;;;1500594;78;1922;-66
2024/04/16 10:20:30;;;;;;;;;;;21.80;49.40;;;;;;1507432;76;1136;-68
2024/04/16 10:22:38;;;;;;;;;;;21.80;49.40;;;;;;1503306;78;582;-69
2024/04/16 10:24:41;;;;;;;;;;;21.80;49.40;;;;;;1555050;74;714;-67
2024/04/16 10:26:43;;;;;;;;;;;21.80;49.40;;;;;;1523154;76;1032;-69
2024/04/16 10:28:45;;;;;;;;;;;21.70;49.30;;;;;;1499486;78;1339;-70
2024/04/16 10:30:47;;;;;;;;;;;21.70;49.30;;;;;;1483567;79;1127;-68
2024/04/16 10:32:49;;;;;;;;;;;21.80;49.30;;;;;;1486283;78;681;-69
2024/04/16 10:34:50;;;;;;;;;;;21.80;49.20;;;;;;1498933;78;687;-69
2024/04/16 10:36:53;;;;;;;;;;;21.70;49.20;;;;;;1497305;78;734;-67
2024/04/16 10:38:56;;;;;;;;;;;21.80;49.20;;;;;;1504772;77;1935;-71
2024/04/16 10:40:59;;;;;;;;;;;21.70;49.20;;;;;;1503823;78;1189;-69
2024/04/16 10:43:01;;;;;;;;;;;21.70;49.10;;;;;;1499317;78;1304;-70
2024/04/16 10:45:03;;;;;;;;;;;21.70;49.10;;;;;;1498143;78;706;-67
2024/04/16 10:47:06;;;;;;;;;;;21.80;49.10;;;;;;1511404;77;707;-68
2024/04/16 10:49:08;;;;;;;;;;;21.70;49.10;;;;;;1502569;77;1169;-69
2024/04/16 10:51:17;;;;;;;;;;;21.70;49.00;;;;;;1496974;77;814;-69
2024/04/16 10:53:19;;;;;;;;;;;21.70;49.10;;;;;;1489679;78;1279;-68
2024/04/16 10:55:22;;;;;;;;;;;21.80;49.10;;;;;;1505520;78;660;-68
2024/04/16 10:57:23;;;;;;;;;;;21.80;49.00;;;;;;1499107;78;1590;-68
2024/04/16 10:59:25;;;;;;;;;;;21.70;48.90;;;;;;1495991;78;1955;-69
2024/04/16 11:01:27;;;;;;;;;;;21.70;48.90;;;;;;1500849;77;808;-69
2024/04/16 11:03:31;;;;;;;;;;;21.70;48.90;;;;;;1503685;78;724;-70
2024/04/16 11:05:33;;;;;;;;;;;21.70;48.90;;;;;;1500010;78;1900;-66
2024/04/16 11:07:35;;;;;;;;;;;21.80;48.80;;;;;;1498396;78;732;-69
2024/04/16 11:09:37;;;;;;;;;;;21.70;48.80;;;;;;1504309;77;1128;-68
2024/04/16 11:11:39;;;;;;;;;;;21.70;48.80;;;;;;1495348;78;1589;-69
2024/04/16 11:13:41;;;;;;;;;;;21.70;48.80;;;;;;1484027;78;702;-66
2024/04/16 11:15:43;;;;;;;;;;;21.70;48.80;;;;;;1516112;77;983;-68
2024/04/16 11:17:45;;;;;;;;;;;21.70;48.70;;;;;;1508766;78;726;-70
2024/04/16 11:19:47;;;;;;;;;;;21.70;48.70;;;;;;1511917;78;1947;-68
2024/04/16 11:21:49;;;;;;;;;;;21.70;48.70;;;;;;1505833;78;776;-70
2024/04/16 11:23:50;;;;;;;;;;;21.70;48.60;;;;;;1501839;78;814;-67
2024/04/16 11:25:53;;;;;;;;;;;21.70;48.60;;;;;;1495606;77;1192;-68
2024/04/16 11:27:55;;;;;;;;;;;21.70;48.60;;;;;;1484717;78;708;-68
2024/04/16 11:29:57;;;;;;;;;;;21.70;48.60;;;;;;1482975;78;1164;-68
2024/04/16 11:31:58;;;;;;;;;;;21.70;48.60;;;;;;1540423;75;781;-67
2024/04/16 11:34:00;;;;;;;;;;;21.70;48.60;;;;;;1540701;75;801;-67
2024/04/16 11:36:03;;;;;;;;;;;21.70;48.50;;;;;;1533134;75;821;-68
2024/04/16 11:38:05;;;;;;;;;;;21.70;48.40;;;;;;1530637;75;741;-73
2024/04/16 11:40:07;;;;;;;;;;;21.70;48.50;;;;;;1542272;75;1929;-69
2024/04/16 11:42:09;;;;;;;;;;;21.70;48.40;;;;;;1530629;75;679;-67
2024/04/16 11:44:11;;;;;;;;;;;21.70;48.40;;;;;;1542795;75;704;-69
2024/04/16 11:46:13;;;;;;;;;;;21.70;48.40;;;;;;1537896;75;712;-72
2024/04/16 11:48:15;;;;;;;;;;;21.70;48.40;;;;;;1544692;75;670;-71
2024/04/16 11:50:17;;;;;;;;;;;21.70;48.40;;;;;;1534970;75;1135;-70
2024/04/16 11:52:19;;;;;;;;;;;21.70;48.40;;;;;;1535808;75;716;-71
2024/04/16 11:54:21;;;;;;;;;;;21.70;48.40;;;;;;1542560;75;1674;-71
2024/04/16 11:56:23;;;;;;;;;;;21.70;48.40;;;;;;1536724;75;660;-67
2024/04/16 11:58:24;;;;;;;;;;;21.70;48.40;;;;;;1548169;75;735;-68
2024/04/16 12:00:26;;;;;;;;;;;21.70;48.30;;;;;;1541989;75;1939;-67
2024/04/16 12:02:28;;;;;;;;;;;21.70;48.30;;;;;;1544903;75;775;-69
2024/04/16 12:04:30;;;;;;;;;;;21.70;48.20;;;;;;1539442;75;630;-67
2024/04/16 12:06:32;;;;;;;;;;;21.70;48.30;;;;;;1537218;75;702;-72
2024/04/16 12:08:34;;;;;;;;;;;21.70;48.30;;;;;;1534282;75;727;-67
2024/04/16 12:10:36;;;;;;;;;;;21.60;48.10;;;;;;1543712;75;1141;-66